sensor_id;sensor_type;location;lat;lon;timestamp;P1;durP1;ratioP1;P2;durP2;ratioP2
10293;SDS011;5192;50.328;7.610;2022-12-07T00:01:38;15.60;;;10.23;;
10293;SDS011;5192;50.328;7.610;2022-12-07T00:04:05;14.50;;;10.37;;
10293;SDS011;5192;50.328;7.610;2022-12-07T00:06:37;16.40;;;10.70;;
10293;SDS011;5192;50.328;7.610;2022-12-07T00:09:08;16.33;;;9.60;;
10293;SDS011;5192;50.328;7.610;2022-12-07T00:11:56;16.40;;;10.27;;
10293;SDS011;5192;50.328;7.610;2022-12-07T00:14:23;15.93;;;9.97;;
10293;SDS011;5192;50.328;7.610;2022-12-07T00:16:51;16.87;;;9.23;;
10293;SDS011;5192;50.328;7.610;2022-12-07T00:19:18;16.30;;;9.80;;
10293;SDS011;5192;50.328;7.610;2022-12-07T00:21:46;15.43;;;9.20;;
10293;SDS011;5192;50.328;7.610;2022-12-07T00:24:13;16.50;;;9.63;;
10293;SDS011;5192;50.328;7.610;2022-12-07T00:26:39;14.83;;;9.13;;
10293;SDS011;5192;50.328;7.610;2022-12-07T00:29:08;14.57;;;8.97;;
10293;SDS011;5192;50.328;7.610;2022-12-07T00:31:40;15.80;;;9.30;;
10293;SDS011;5192;50.328;7.610;2022-12-07T00:34:07;15.40;;;9.80;;
10293;SDS011;5192;50.328;7.610;2022-12-07T00:36:42;15.63;;;8.87;;
10293;SDS011;5192;50.328;7.610;2022-12-07T00:39:08;14.97;;;8.73;;
10293;SDS011;5192;50.328;7.610;2022-12-07T00:41:35;15.47;;;9.73;;
10293;SDS011;5192;50.328;7.610;2022-12-07T00:44:02;12.33;;;7.97;;
10293;SDS011;5192;50.328;7.610;2022-12-07T00:46:29;14.90;;;11.00;;
10293;SDS011;5192;50.328;7.610;2022-12-07T00:48:55;13.50;;;8.63;;
10293;SDS011;5192;50.328;7.610;2022-12-07T00:51:22;14.03;;;9.53;;
10293;SDS011;5192;50.328;7.610;2022-12-07T00:53:50;13.13;;;9.20;;
10293;SDS011;5192;50.328;7.610;2022-12-07T00:56:24;15.90;;;9.20;;
10293;SDS011;5192;50.328;7.610;2022-12-07T00:58:59;12.43;;;9.27;;
10293;SDS011;5192;50.328;7.610;2022-12-07T01:01:28;19.23;;;9.53;;
10293;SDS011;5192;50.328;7.610;2022-12-07T01:03:57;13.97;;;8.87;;
10293;SDS011;5192;50.328;7.610;2022-12-07T01:06:23;11.27;;;7.97;;
10293;SDS011;5192;50.328;7.610;2022-12-07T01:08:50;12.77;;;9.17;;
10293;SDS011;5192;50.328;7.610;2022-12-07T01:11:18;12.33;;;8.63;;
10293;SDS011;5192;50.328;7.610;2022-12-07T01:13:46;12.23;;;8.57;;
10293;SDS011;5192;50.328;7.610;2022-12-07T01:16:14;17.17;;;9.73;;
10293;SDS011;5192;50.328;7.610;2022-12-07T01:18:41;14.70;;;9.90;;
10293;SDS011;5192;50.328;7.610;2022-12-07T01:21:14;14.03;;;9.33;;
10293;SDS011;5192;50.328;7.610;2022-12-07T01:23:46;13.73;;;9.73;;
10293;SDS011;5192;50.328;7.610;2022-12-07T01:26:14;16.33;;;9.40;;
10293;SDS011;5192;50.328;7.610;2022-12-07T01:28:42;13.83;;;9.03;;
10293;SDS011;5192;50.328;7.610;2022-12-07T01:31:12;13.73;;;8.93;;
10293;SDS011;5192;50.328;7.610;2022-12-07T01:33:41;13.97;;;9.27;;
10293;SDS011;5192;50.328;7.610;2022-12-07T01:36:15;15.73;;;10.07;;
10293;SDS011;5192;50.328;7.610;2022-12-07T01:38:41;15.33;;;10.00;;
10293;SDS011;5192;50.328;7.610;2022-12-07T01:41:09;15.20;;;10.10;;
10293;SDS011;5192;50.328;7.610;2022-12-07T01:43:36;14.03;;;10.17;;
10293;SDS011;5192;50.328;7.610;2022-12-07T01:46:25;12.93;;;9.20;;
10293;SDS011;5192;50.328;7.610;2022-12-07T01:48:52;15.20;;;10.37;;
10293;SDS011;5192;50.328;7.610;2022-12-07T01:51:19;18.33;;;11.50;;
10293;SDS011;5192;50.328;7.610;2022-12-07T01:53:45;19.20;;;11.00;;
10293;SDS011;5192;50.328;7.610;2022-12-07T01:56:17;16.67;;;11.63;;
10293;SDS011;5192;50.328;7.610;2022-12-07T01:58:49;15.13;;;10.10;;
10293;SDS011;5192;50.328;7.610;2022-12-07T02:01:17;16.43;;;10.20;;
10293;SDS011;5192;50.328;7.610;2022-12-07T02:03:44;14.87;;;10.60;;
10293;SDS011;5192;50.328;7.610;2022-12-07T02:06:13;17.47;;;11.07;;
10293;SDS011;5192;50.328;7.610;2022-12-07T02:08:44;16.53;;;10.60;;
10293;SDS011;5192;50.328;7.610;2022-12-07T02:11:12;16.47;;;10.53;;
10293;SDS011;5192;50.328;7.610;2022-12-07T02:13:40;16.43;;;11.10;;
10293;SDS011;5192;50.328;7.610;2022-12-07T02:28:28;20.00;;;11.27;;
10293;SDS011;5192;50.328;7.610;2022-12-07T02:31:16;15.23;;;10.70;;
10293;SDS011;5192;50.328;7.610;2022-12-07T02:33:46;18.30;;;10.70;;
10293;SDS011;5192;50.328;7.610;2022-12-07T02:36:31;18.33;;;11.20;;
10293;SDS011;5192;50.328;7.610;2022-12-07T02:39:48;18.93;;;11.77;;
10293;SDS011;5192;50.328;7.610;2022-12-07T02:42:19;17.40;;;11.50;;
10293;SDS011;5192;50.328;7.610;2022-12-07T02:44:58;16.70;;;11.90;;
10293;SDS011;5192;50.328;7.610;2022-12-07T02:47:25;17.97;;;11.17;;
10293;SDS011;5192;50.328;7.610;2022-12-07T02:49:54;17.33;;;11.43;;
10293;SDS011;5192;50.328;7.610;2022-12-07T02:52:23;17.67;;;11.63;;
10293;SDS011;5192;50.328;7.610;2022-12-07T02:54:49;17.27;;;11.83;;
10293;SDS011;5192;50.328;7.610;2022-12-07T03:00:12;17.10;;;11.00;;
10293;SDS011;5192;50.328;7.610;2022-12-07T03:09:07;17.43;;;11.03;;
10293;SDS011;5192;50.328;7.610;2022-12-07T03:11:55;17.50;;;10.90;;
10293;SDS011;5192;50.328;7.610;2022-12-07T03:14:34;14.70;;;9.70;;
10293;SDS011;5192;50.328;7.610;2022-12-07T03:17:27;17.73;;;10.67;;
10293;SDS011;5192;50.328;7.610;2022-12-07T03:20:00;14.80;;;11.20;;
10293;SDS011;5192;50.328;7.610;2022-12-07T03:22:30;15.70;;;11.47;;
10293;SDS011;5192;50.328;7.610;2022-12-07T03:25:01;15.57;;;10.80;;
10293;SDS011;5192;50.328;7.610;2022-12-07T03:30:29;13.93;;;10.13;;
10293;SDS011;5192;50.328;7.610;2022-12-07T03:33:23;17.40;;;11.37;;
10293;SDS011;5192;50.328;7.610;2022-12-07T03:36:15;14.27;;;10.03;;
10293;SDS011;5192;50.328;7.610;2022-12-07T03:39:03;14.87;;;10.57;;
10293;SDS011;5192;50.328;7.610;2022-12-07T03:41:41;15.47;;;10.83;;
10293;SDS011;5192;50.328;7.610;2022-12-07T03:44:08;15.87;;;9.73;;
10293;SDS011;5192;50.328;7.610;2022-12-07T03:46:36;14.90;;;10.23;;
10293;SDS011;5192;50.328;7.610;2022-12-07T03:52:27;17.00;;;10.53;;
10293;SDS011;5192;50.328;7.610;2022-12-07T03:58:03;13.83;;;10.17;;
10293;SDS011;5192;50.328;7.610;2022-12-07T04:00:40;13.97;;;9.70;;
10293;SDS011;5192;50.328;7.610;2022-12-07T04:03:08;13.43;;;9.83;;
10293;SDS011;5192;50.328;7.610;2022-12-07T04:05:34;12.23;;;8.90;;
10293;SDS011;5192;50.328;7.610;2022-12-07T04:08:00;13.03;;;9.40;;
10293;SDS011;5192;50.328;7.610;2022-12-07T04:10:27;12.47;;;9.37;;
10293;SDS011;5192;50.328;7.610;2022-12-07T04:12:54;12.43;;;8.97;;
10293;SDS011;5192;50.328;7.610;2022-12-07T04:15:21;13.33;;;9.53;;
10293;SDS011;5192;50.328;7.610;2022-12-07T04:17:51;13.73;;;9.30;;
10293;SDS011;5192;50.328;7.610;2022-12-07T04:20:16;12.33;;;9.00;;
10293;SDS011;5192;50.328;7.610;2022-12-07T04:22:42;13.57;;;9.77;;
10293;SDS011;5192;50.328;7.610;2022-12-07T04:25:09;11.57;;;8.87;;
10293;SDS011;5192;50.328;7.610;2022-12-07T04:27:35;12.50;;;9.13;;
10293;SDS011;5192;50.328;7.610;2022-12-07T04:30:02;13.40;;;10.10;;
10293;SDS011;5192;50.328;7.610;2022-12-07T04:32:29;16.37;;;10.20;;
10293;SDS011;5192;50.328;7.610;2022-12-07T04:34:56;12.00;;;8.87;;
10293;SDS011;5192;50.328;7.610;2022-12-07T04:37:22;12.03;;;9.10;;
10293;SDS011;5192;50.328;7.610;2022-12-07T04:39:49;13.23;;;10.20;;
10293;SDS011;5192;50.328;7.610;2022-12-07T04:42:16;14.33;;;9.67;;
10293;SDS011;5192;50.328;7.610;2022-12-07T04:44:42;14.03;;;9.53;;
10293;SDS011;5192;50.328;7.610;2022-12-07T04:47:08;15.13;;;9.77;;
10293;SDS011;5192;50.328;7.610;2022-12-07T04:49:36;12.67;;;9.50;;
10293;SDS011;5192;50.328;7.610;2022-12-07T04:52:02;12.97;;;9.97;;
10293;SDS011;5192;50.328;7.610;2022-12-07T04:54:28;15.80;;;10.23;;
10293;SDS011;5192;50.328;7.610;2022-12-07T04:56:55;15.53;;;9.40;;
10293;SDS011;5192;50.328;7.610;2022-12-07T04:59:22;14.93;;;10.17;;
10293;SDS011;5192;50.328;7.610;2022-12-07T05:01:49;13.83;;;10.07;;
10293;SDS011;5192;50.328;7.610;2022-12-07T05:04:16;13.87;;;9.57;;
10293;SDS011;5192;50.328;7.610;2022-12-07T05:06:42;12.97;;;9.57;;
10293;SDS011;5192;50.328;7.610;2022-12-07T05:09:08;13.47;;;9.23;;
10293;SDS011;5192;50.328;7.610;2022-12-07T05:11:36;13.10;;;9.30;;
10293;SDS011;5192;50.328;7.610;2022-12-07T05:14:16;13.70;;;9.40;;
10293;SDS011;5192;50.328;7.610;2022-12-07T05:16:46;12.80;;;9.07;;
10293;SDS011;5192;50.328;7.610;2022-12-07T05:19:16;14.93;;;10.67;;
10293;SDS011;5192;50.328;7.610;2022-12-07T05:21:43;14.53;;;10.33;;
10293;SDS011;5192;50.328;7.610;2022-12-07T05:24:09;13.47;;;9.47;;
10293;SDS011;5192;50.328;7.610;2022-12-07T05:26:38;12.77;;;9.73;;
10293;SDS011;5192;50.328;7.610;2022-12-07T05:29:05;18.70;;;12.53;;
10293;SDS011;5192;50.328;7.610;2022-12-07T05:31:32;15.23;;;10.13;;
10293;SDS011;5192;50.328;7.610;2022-12-07T05:33:59;12.93;;;9.77;;
10293;SDS011;5192;50.328;7.610;2022-12-07T05:36:26;14.87;;;9.57;;
10293;SDS011;5192;50.328;7.610;2022-12-07T05:38:54;14.87;;;10.40;;
10293;SDS011;5192;50.328;7.610;2022-12-07T05:41:21;14.27;;;10.20;;
10293;SDS011;5192;50.328;7.610;2022-12-07T05:44:08;14.73;;;9.23;;
10293;SDS011;5192;50.328;7.610;2022-12-07T05:46:34;12.90;;;9.43;;
10293;SDS011;5192;50.328;7.610;2022-12-07T05:49:01;14.40;;;10.30;;
10293;SDS011;5192;50.328;7.610;2022-12-07T05:51:27;13.23;;;10.17;;
10293;SDS011;5192;50.328;7.610;2022-12-07T05:53:53;13.33;;;9.43;;
10293;SDS011;5192;50.328;7.610;2022-12-07T05:56:20;14.43;;;9.43;;
10293;SDS011;5192;50.328;7.610;2022-12-07T05:58:46;13.97;;;9.73;;
10293;SDS011;5192;50.328;7.610;2022-12-07T06:01:32;13.27;;;9.83;;
10293;SDS011;5192;50.328;7.610;2022-12-07T06:03:59;17.53;;;10.20;;
10293;SDS011;5192;50.328;7.610;2022-12-07T06:06:27;15.30;;;9.87;;
10293;SDS011;5192;50.328;7.610;2022-12-07T06:08:53;13.43;;;10.00;;
10293;SDS011;5192;50.328;7.610;2022-12-07T06:11:20;16.47;;;10.20;;
10293;SDS011;5192;50.328;7.610;2022-12-07T06:14:05;15.10;;;10.47;;
10293;SDS011;5192;50.328;7.610;2022-12-07T06:16:30;15.27;;;9.83;;
10293;SDS011;5192;50.328;7.610;2022-12-07T06:18:58;14.30;;;9.93;;
10293;SDS011;5192;50.328;7.610;2022-12-07T06:21:26;14.53;;;9.83;;
10293;SDS011;5192;50.328;7.610;2022-12-07T06:23:55;14.03;;;9.83;;
10293;SDS011;5192;50.328;7.610;2022-12-07T06:26:23;14.67;;;10.03;;
10293;SDS011;5192;50.328;7.610;2022-12-07T06:28:49;18.33;;;10.63;;
10293;SDS011;5192;50.328;7.610;2022-12-07T06:31:16;14.53;;;10.60;;
10293;SDS011;5192;50.328;7.610;2022-12-07T06:33:41;13.67;;;10.23;;
10293;SDS011;5192;50.328;7.610;2022-12-07T06:36:08;12.27;;;10.00;;
10293;SDS011;5192;50.328;7.610;2022-12-07T06:38:36;14.00;;;10.00;;
10293;SDS011;5192;50.328;7.610;2022-12-07T06:41:03;12.97;;;9.40;;
10293;SDS011;5192;50.328;7.610;2022-12-07T06:43:30;15.67;;;10.57;;
10293;SDS011;5192;50.328;7.610;2022-12-07T06:46:01;14.67;;;9.00;;
10293;SDS011;5192;50.328;7.610;2022-12-07T06:48:27;15.57;;;10.53;;
10293;SDS011;5192;50.328;7.610;2022-12-07T06:50:53;15.17;;;10.63;;
10293;SDS011;5192;50.328;7.610;2022-12-07T06:53:19;14.93;;;10.53;;
10293;SDS011;5192;50.328;7.610;2022-12-07T06:55:46;15.13;;;9.67;;
10293;SDS011;5192;50.328;7.610;2022-12-07T06:58:14;16.73;;;10.93;;
10293;SDS011;5192;50.328;7.610;2022-12-07T07:00:40;16.93;;;10.80;;
10293;SDS011;5192;50.328;7.610;2022-12-07T07:03:09;14.90;;;10.57;;
10293;SDS011;5192;50.328;7.610;2022-12-07T07:05:35;14.13;;;10.10;;
10293;SDS011;5192;50.328;7.610;2022-12-07T07:08:02;14.50;;;10.70;;
10293;SDS011;5192;50.328;7.610;2022-12-07T07:10:31;15.60;;;11.50;;
10293;SDS011;5192;50.328;7.610;2022-12-07T07:12:56;14.47;;;10.57;;
10293;SDS011;5192;50.328;7.610;2022-12-07T07:15:25;15.77;;;11.10;;
10293;SDS011;5192;50.328;7.610;2022-12-07T07:17:53;14.27;;;10.33;;
10293;SDS011;5192;50.328;7.610;2022-12-07T07:20:20;19.20;;;10.23;;
10293;SDS011;5192;50.328;7.610;2022-12-07T07:22:48;13.13;;;9.57;;
10293;SDS011;5192;50.328;7.610;2022-12-07T07:25:16;12.70;;;9.37;;
10293;SDS011;5192;50.328;7.610;2022-12-07T07:27:47;15.30;;;9.57;;
10293;SDS011;5192;50.328;7.610;2022-12-07T07:30:15;15.30;;;9.73;;
10293;SDS011;5192;50.328;7.610;2022-12-07T07:32:42;14.23;;;10.07;;
10293;SDS011;5192;50.328;7.610;2022-12-07T07:35:10;14.80;;;10.40;;
10293;SDS011;5192;50.328;7.610;2022-12-07T07:37:36;14.43;;;9.63;;
10293;SDS011;5192;50.328;7.610;2022-12-07T07:40:02;12.83;;;9.17;;
10293;SDS011;5192;50.328;7.610;2022-12-07T07:42:29;17.47;;;10.43;;
10293;SDS011;5192;50.328;7.610;2022-12-07T07:44:55;13.10;;;9.47;;
10293;SDS011;5192;50.328;7.610;2022-12-07T07:47:23;16.07;;;9.40;;
10293;SDS011;5192;50.328;7.610;2022-12-07T07:49:49;15.03;;;9.63;;
10293;SDS011;5192;50.328;7.610;2022-12-07T07:52:16;12.87;;;9.17;;
10293;SDS011;5192;50.328;7.610;2022-12-07T07:54:43;15.00;;;10.07;;
10293;SDS011;5192;50.328;7.610;2022-12-07T07:57:09;15.37;;;10.80;;
10293;SDS011;5192;50.328;7.610;2022-12-07T07:59:36;14.33;;;10.30;;
10293;SDS011;5192;50.328;7.610;2022-12-07T08:02:03;13.40;;;9.27;;
10293;SDS011;5192;50.328;7.610;2022-12-07T08:04:28;15.07;;;10.27;;
10293;SDS011;5192;50.328;7.610;2022-12-07T08:06:56;13.93;;;9.33;;
10293;SDS011;5192;50.328;7.610;2022-12-07T08:09:22;15.37;;;10.07;;
10293;SDS011;5192;50.328;7.610;2022-12-07T08:11:48;14.87;;;9.63;;
10293;SDS011;5192;50.328;7.610;2022-12-07T08:14:13;14.80;;;9.40;;
10293;SDS011;5192;50.328;7.610;2022-12-07T08:16:39;15.83;;;10.80;;
10293;SDS011;5192;50.328;7.610;2022-12-07T08:19:06;16.27;;;9.43;;
10293;SDS011;5192;50.328;7.610;2022-12-07T08:21:32;12.97;;;9.27;;
10293;SDS011;5192;50.328;7.610;2022-12-07T08:23:59;16.13;;;10.13;;
10293;SDS011;5192;50.328;7.610;2022-12-07T08:26:25;15.63;;;9.57;;
10293;SDS011;5192;50.328;7.610;2022-12-07T08:28:52;12.67;;;8.87;;
10293;SDS011;5192;50.328;7.610;2022-12-07T08:31:21;11.23;;;7.97;;
10293;SDS011;5192;50.328;7.610;2022-12-07T08:33:48;17.10;;;10.43;;
10293;SDS011;5192;50.328;7.610;2022-12-07T08:36:16;13.30;;;8.97;;
10293;SDS011;5192;50.328;7.610;2022-12-07T08:38:43;14.17;;;9.73;;
10293;SDS011;5192;50.328;7.610;2022-12-07T08:41:11;12.57;;;9.00;;
10293;SDS011;5192;50.328;7.610;2022-12-07T08:43:36;12.17;;;8.50;;
10293;SDS011;5192;50.328;7.610;2022-12-07T08:46:13;13.20;;;8.30;;
10293;SDS011;5192;50.328;7.610;2022-12-07T08:49:16;13.23;;;8.03;;
10293;SDS011;5192;50.328;7.610;2022-12-07T08:51:52;13.03;;;8.40;;
10293;SDS011;5192;50.328;7.610;2022-12-07T08:54:19;11.20;;;7.60;;
10293;SDS011;5192;50.328;7.610;2022-12-07T08:56:47;12.20;;;8.67;;
10293;SDS011;5192;50.328;7.610;2022-12-07T08:59:14;10.67;;;8.67;;
10293;SDS011;5192;50.328;7.610;2022-12-07T09:01:42;13.70;;;8.30;;
10293;SDS011;5192;50.328;7.610;2022-12-07T09:04:09;12.97;;;8.00;;
10293;SDS011;5192;50.328;7.610;2022-12-07T09:06:37;11.07;;;8.47;;
10293;SDS011;5192;50.328;7.610;2022-12-07T09:09:04;11.77;;;7.60;;
10293;SDS011;5192;50.328;7.610;2022-12-07T09:11:34;12.40;;;7.23;;
10293;SDS011;5192;50.328;7.610;2022-12-07T09:14:00;11.20;;;7.97;;
10293;SDS011;5192;50.328;7.610;2022-12-07T09:16:28;12.37;;;7.70;;
10293;SDS011;5192;50.328;7.610;2022-12-07T09:18:55;13.23;;;7.50;;
10293;SDS011;5192;50.328;7.610;2022-12-07T09:21:23;10.63;;;8.00;;
10293;SDS011;5192;50.328;7.610;2022-12-07T09:23:51;12.83;;;7.97;;
10293;SDS011;5192;50.328;7.610;2022-12-07T09:26:17;11.83;;;7.77;;
10293;SDS011;5192;50.328;7.610;2022-12-07T09:28:45;11.30;;;7.60;;
10293;SDS011;5192;50.328;7.610;2022-12-07T09:31:12;8.23;;;6.10;;
10293;SDS011;5192;50.328;7.610;2022-12-07T09:33:39;9.90;;;7.03;;
10293;SDS011;5192;50.328;7.610;2022-12-07T09:36:08;9.03;;;5.80;;
10293;SDS011;5192;50.328;7.610;2022-12-07T09:38:36;10.90;;;6.30;;
10293;SDS011;5192;50.328;7.610;2022-12-07T09:41:06;8.77;;;6.17;;
10293;SDS011;5192;50.328;7.610;2022-12-07T09:43:34;10.13;;;6.23;;
10293;SDS011;5192;50.328;7.610;2022-12-07T09:46:04;9.57;;;5.40;;
10293;SDS011;5192;50.328;7.610;2022-12-07T09:48:31;9.20;;;5.97;;
10293;SDS011;5192;50.328;7.610;2022-12-07T09:51:01;9.67;;;6.37;;
10293;SDS011;5192;50.328;7.610;2022-12-07T09:53:38;8.17;;;5.53;;
10293;SDS011;5192;50.328;7.610;2022-12-07T09:56:06;13.23;;;6.33;;
10293;SDS011;5192;50.328;7.610;2022-12-07T09:58:35;9.87;;;6.33;;
10293;SDS011;5192;50.328;7.610;2022-12-07T10:01:09;8.90;;;5.97;;
10293;SDS011;5192;50.328;7.610;2022-12-07T10:03:59;7.17;;;5.47;;
10293;SDS011;5192;50.328;7.610;2022-12-07T10:06:48;8.30;;;6.10;;
10293;SDS011;5192;50.328;7.610;2022-12-07T10:09:18;7.73;;;5.53;;
10293;SDS011;5192;50.328;7.610;2022-12-07T10:14:40;7.43;;;5.80;;
10293;SDS011;5192;50.328;7.610;2022-12-07T10:20:19;7.33;;;5.13;;
10293;SDS011;5192;50.328;7.610;2022-12-07T10:23:04;9.37;;;5.60;;
10293;SDS011;5192;50.328;7.610;2022-12-07T10:25:38;7.43;;;5.70;;
10293;SDS011;5192;50.328;7.610;2022-12-07T10:28:17;9.27;;;5.73;;
10293;SDS011;5192;50.328;7.610;2022-12-07T10:30:47;10.00;;;5.77;;
10293;SDS011;5192;50.328;7.610;2022-12-07T10:36:19;8.00;;;5.40;;
10293;SDS011;5192;50.328;7.610;2022-12-07T10:42:00;8.07;;;5.43;;
10293;SDS011;5192;50.328;7.610;2022-12-07T10:44:29;7.37;;;4.67;;
10293;SDS011;5192;50.328;7.610;2022-12-07T10:47:07;11.73;;;6.37;;
10293;SDS011;5192;50.328;7.610;2022-12-07T10:52:40;7.37;;;4.90;;
10293;SDS011;5192;50.328;7.610;2022-12-07T11:10:55;8.67;;;5.17;;
10293;SDS011;5192;50.328;7.610;2022-12-07T11:22:52;5.03;;;3.43;;
10293;SDS011;5192;50.328;7.610;2022-12-07T11:25:43;5.63;;;3.47;;
10293;SDS011;5192;50.328;7.610;2022-12-07T11:31:31;6.20;;;3.53;;
10293;SDS011;5192;50.328;7.610;2022-12-07T11:37:39;6.23;;;3.27;;
10293;SDS011;5192;50.328;7.610;2022-12-07T11:40:20;6.80;;;3.33;;
10293;SDS011;5192;50.328;7.610;2022-12-07T11:43:13;5.40;;;3.57;;
10293;SDS011;5192;50.328;7.610;2022-12-07T11:45:59;5.10;;;3.03;;
10293;SDS011;5192;50.328;7.610;2022-12-07T11:51:37;3.73;;;2.20;;
10293;SDS011;5192;50.328;7.610;2022-12-07T11:54:12;7.37;;;2.87;;
10293;SDS011;5192;50.328;7.610;2022-12-07T11:56:55;5.37;;;2.13;;
10293;SDS011;5192;50.328;7.610;2022-12-07T12:00:14;4.57;;;2.27;;
10293;SDS011;5192;50.328;7.610;2022-12-07T12:03:03;4.80;;;2.00;;
10293;SDS011;5192;50.328;7.610;2022-12-07T12:05:30;2.90;;;1.90;;
10293;SDS011;5192;50.328;7.610;2022-12-07T12:08:00;2.97;;;1.63;;
10293;SDS011;5192;50.328;7.610;2022-12-07T12:22:20;2.80;;;1.40;;
10293;SDS011;5192;50.328;7.610;2022-12-07T12:24:49;4.40;;;1.67;;
10293;SDS011;5192;50.328;7.610;2022-12-07T12:30:06;3.17;;;1.37;;
10293;SDS011;5192;50.328;7.610;2022-12-07T12:32:48;3.13;;;1.40;;
10293;SDS011;5192;50.328;7.610;2022-12-07T12:35:32;5.17;;;1.53;;
10293;SDS011;5192;50.328;7.610;2022-12-07T12:38:24;2.77;;;1.50;;
10293;SDS011;5192;50.328;7.610;2022-12-07T12:57:36;5.33;;;1.73;;
10293;SDS011;5192;50.328;7.610;2022-12-07T13:02:51;2.47;;;1.63;;
10293;SDS011;5192;50.328;7.610;2022-12-07T13:05:27;5.83;;;1.90;;
10293;SDS011;5192;50.328;7.610;2022-12-07T13:08:18;4.23;;;1.60;;
10293;SDS011;5192;50.328;7.610;2022-12-07T13:10:49;8.27;;;2.10;;
10293;SDS011;5192;50.328;7.610;2022-12-07T13:29:21;3.50;;;1.30;;
10293;SDS011;5192;50.328;7.610;2022-12-07T13:34:49;6.00;;;1.60;;
10293;SDS011;5192;50.328;7.610;2022-12-07T13:37:19;3.43;;;1.70;;
10293;SDS011;5192;50.328;7.610;2022-12-07T13:39:59;3.97;;;1.70;;
10293;SDS011;5192;50.328;7.610;2022-12-07T13:42:41;6.03;;;2.70;;
10293;SDS011;5192;50.328;7.610;2022-12-07T13:45:21;5.17;;;2.37;;
10293;SDS011;5192;50.328;7.610;2022-12-07T13:48:08;4.43;;;1.57;;
10293;SDS011;5192;50.328;7.610;2022-12-07T13:51:02;5.80;;;1.60;;
10293;SDS011;5192;50.328;7.610;2022-12-07T13:53:30;4.30;;;1.80;;
10293;SDS011;5192;50.328;7.610;2022-12-07T13:55:57;4.77;;;2.10;;
10293;SDS011;5192;50.328;7.610;2022-12-07T13:58:26;3.60;;;1.90;;
10293;SDS011;5192;50.328;7.610;2022-12-07T14:00:55;4.80;;;2.33;;
10293;SDS011;5192;50.328;7.610;2022-12-07T14:03:30;2.63;;;1.80;;
10293;SDS011;5192;50.328;7.610;2022-12-07T14:06:13;5.80;;;1.80;;
10293;SDS011;5192;50.328;7.610;2022-12-07T14:08:44;3.10;;;1.77;;
10293;SDS011;5192;50.328;7.610;2022-12-07T14:11:13;3.63;;;1.83;;
10293;SDS011;5192;50.328;7.610;2022-12-07T14:13:51;2.43;;;1.60;;
10293;SDS011;5192;50.328;7.610;2022-12-07T14:16:31;4.00;;;1.70;;
10293;SDS011;5192;50.328;7.610;2022-12-07T14:22:19;4.93;;;1.80;;
10293;SDS011;5192;50.328;7.610;2022-12-07T14:27:58;4.23;;;1.80;;
10293;SDS011;5192;50.328;7.610;2022-12-07T14:30:28;5.83;;;2.07;;
10293;SDS011;5192;50.328;7.610;2022-12-07T14:33:00;2.00;;;1.53;;
10293;SDS011;5192;50.328;7.610;2022-12-07T14:35:29;3.33;;;1.83;;
10293;SDS011;5192;50.328;7.610;2022-12-07T14:37:59;5.07;;;1.63;;
10293;SDS011;5192;50.328;7.610;2022-12-07T14:40:26;6.27;;;2.17;;
10293;SDS011;5192;50.328;7.610;2022-12-07T14:43:04;6.97;;;1.97;;
10293;SDS011;5192;50.328;7.610;2022-12-07T14:45:35;7.60;;;3.20;;
10293;SDS011;5192;50.328;7.610;2022-12-07T14:48:00;3.90;;;1.93;;
10293;SDS011;5192;50.328;7.610;2022-12-07T14:50:27;3.23;;;2.00;;
10293;SDS011;5192;50.328;7.610;2022-12-07T14:53:05;5.70;;;2.20;;
10293;SDS011;5192;50.328;7.610;2022-12-07T14:55:43;6.73;;;2.50;;
10293;SDS011;5192;50.328;7.610;2022-12-07T14:58:13;5.13;;;2.20;;
10293;SDS011;5192;50.328;7.610;2022-12-07T15:00:41;5.90;;;2.50;;
10293;SDS011;5192;50.328;7.610;2022-12-07T15:03:10;5.37;;;2.37;;
10293;SDS011;5192;50.328;7.610;2022-12-07T15:05:38;5.20;;;2.20;;
10293;SDS011;5192;50.328;7.610;2022-12-07T15:08:08;5.60;;;3.60;;
10293;SDS011;5192;50.328;7.610;2022-12-07T15:10:35;4.03;;;2.73;;
10293;SDS011;5192;50.328;7.610;2022-12-07T15:13:06;4.83;;;2.30;;
10293;SDS011;5192;50.328;7.610;2022-12-07T15:15:53;4.83;;;2.70;;
10293;SDS011;5192;50.328;7.610;2022-12-07T15:18:20;5.40;;;2.50;;
10293;SDS011;5192;50.328;7.610;2022-12-07T15:20:47;3.93;;;2.70;;
10293;SDS011;5192;50.328;7.610;2022-12-07T15:23:15;3.23;;;2.37;;
10293;SDS011;5192;50.328;7.610;2022-12-07T15:25:41;4.83;;;2.60;;
10293;SDS011;5192;50.328;7.610;2022-12-07T15:28:07;5.43;;;2.90;;
10293;SDS011;5192;50.328;7.610;2022-12-07T15:30:33;4.23;;;2.60;;
10293;SDS011;5192;50.328;7.610;2022-12-07T15:33:03;6.80;;;3.13;;
10293;SDS011;5192;50.328;7.610;2022-12-07T15:35:30;5.40;;;2.90;;
10293;SDS011;5192;50.328;7.610;2022-12-07T15:37:56;5.17;;;3.07;;
10293;SDS011;5192;50.328;7.610;2022-12-07T15:40:23;5.03;;;2.80;;
10293;SDS011;5192;50.328;7.610;2022-12-07T15:42:49;4.60;;;2.50;;
10293;SDS011;5192;50.328;7.610;2022-12-07T15:45:16;5.57;;;3.00;;
10293;SDS011;5192;50.328;7.610;2022-12-07T15:47:44;3.13;;;2.83;;
10293;SDS011;5192;50.328;7.610;2022-12-07T15:50:12;6.40;;;3.00;;
10293;SDS011;5192;50.328;7.610;2022-12-07T15:52:42;4.87;;;2.80;;
10293;SDS011;5192;50.328;7.610;2022-12-07T15:55:09;3.97;;;2.60;;
10293;SDS011;5192;50.328;7.610;2022-12-07T15:57:36;6.00;;;2.87;;
10293;SDS011;5192;50.328;7.610;2022-12-07T16:00:07;9.83;;;3.17;;
10293;SDS011;5192;50.328;7.610;2022-12-07T16:02:48;4.83;;;2.80;;
10293;SDS011;5192;50.328;7.610;2022-12-07T16:05:15;4.47;;;2.73;;
10293;SDS011;5192;50.328;7.610;2022-12-07T16:07:41;4.40;;;2.57;;
10293;SDS011;5192;50.328;7.610;2022-12-07T16:10:07;6.47;;;3.37;;
10293;SDS011;5192;50.328;7.610;2022-12-07T16:12:32;4.43;;;3.17;;
10293;SDS011;5192;50.328;7.610;2022-12-07T16:14:59;5.70;;;3.70;;
10293;SDS011;5192;50.328;7.610;2022-12-07T16:17:26;3.30;;;2.50;;
10293;SDS011;5192;50.328;7.610;2022-12-07T16:19:53;4.73;;;2.73;;
10293;SDS011;5192;50.328;7.610;2022-12-07T16:22:20;4.57;;;3.07;;
10293;SDS011;5192;50.328;7.610;2022-12-07T16:24:46;3.47;;;2.67;;
10293;SDS011;5192;50.328;7.610;2022-12-07T16:27:13;3.80;;;2.90;;
10293;SDS011;5192;50.328;7.610;2022-12-07T16:29:39;5.70;;;2.60;;
10293;SDS011;5192;50.328;7.610;2022-12-07T16:32:07;3.10;;;2.43;;
10293;SDS011;5192;50.328;7.610;2022-12-07T16:34:34;7.33;;;3.10;;
10293;SDS011;5192;50.328;7.610;2022-12-07T16:37:02;5.37;;;3.00;;
10293;SDS011;5192;50.328;7.610;2022-12-07T16:39:29;5.70;;;3.40;;
10293;SDS011;5192;50.328;7.610;2022-12-07T16:41:57;5.07;;;3.53;;
10293;SDS011;5192;50.328;7.610;2022-12-07T16:44:23;6.30;;;4.17;;
10293;SDS011;5192;50.328;7.610;2022-12-07T16:46:50;7.33;;;3.60;;
10293;SDS011;5192;50.328;7.610;2022-12-07T16:49:16;8.40;;;3.67;;
10293;SDS011;5192;50.328;7.610;2022-12-07T16:51:43;9.63;;;3.80;;
10293;SDS011;5192;50.328;7.610;2022-12-07T16:54:11;8.67;;;4.50;;
10293;SDS011;5192;50.328;7.610;2022-12-07T16:56:38;5.50;;;3.70;;
10293;SDS011;5192;50.328;7.610;2022-12-07T16:59:04;5.67;;;3.60;;
10293;SDS011;5192;50.328;7.610;2022-12-07T17:01:31;8.50;;;3.87;;
10293;SDS011;5192;50.328;7.610;2022-12-07T17:03:57;6.97;;;3.43;;
10293;SDS011;5192;50.328;7.610;2022-12-07T17:06:27;5.10;;;3.20;;
10293;SDS011;5192;50.328;7.610;2022-12-07T17:08:56;6.10;;;4.37;;
10293;SDS011;5192;50.328;7.610;2022-12-07T17:11:24;4.67;;;4.20;;
10293;SDS011;5192;50.328;7.610;2022-12-07T17:13:53;4.87;;;3.60;;
10293;SDS011;5192;50.328;7.610;2022-12-07T17:16:39;8.50;;;4.80;;
10293;SDS011;5192;50.328;7.610;2022-12-07T17:19:08;6.03;;;4.20;;
10293;SDS011;5192;50.328;7.610;2022-12-07T17:21:39;6.03;;;4.17;;
10293;SDS011;5192;50.328;7.610;2022-12-07T17:24:07;5.50;;;3.83;;
10293;SDS011;5192;50.328;7.610;2022-12-07T17:26:39;8.30;;;4.17;;
10293;SDS011;5192;50.328;7.610;2022-12-07T17:29:09;6.67;;;3.70;;
10293;SDS011;5192;50.328;7.610;2022-12-07T17:31:38;6.27;;;3.60;;